South Reno (Wolf Run), Nevada Weather observations

Data are for observation ending at time listed.
 Day   Time    Ave.   Ave.  Ave.  Vector   Max.   Stn.    Total    Solar   Ave.  
  of    of     Air    Rel.  Wind   Wind    Wind   Baro.  Precip.   Rad.    Soil  
Year   Day     Temp.  Hum.  Speed  Dir.    Gust   Pres.                    Temp. 
2014   (PST)    F      %     mph   deg.    mph     mb.     in.     W/m2     F   
------------------------------------------------------------------------------
 244   13:40   84.8    14    5.4     6     12.6  99999.0    0.00     819    68.2
 244   13:50   85.2    15    4.2    11      8.0  99999.0    0.00     792    68.4
 244   14:00   86.7    14    3.5   355      6.5  99999.0    0.00     786    68.6
 244   14:10   85.8    14    5.5    38     11.5  99999.0    0.00     753    68.8
 244   14:20   85.3    14    3.7    62      9.6  99999.0    0.00     747    68.9
 244   14:30   86.5    14    4.8    29     12.7  99999.0    0.00     701    69.1
 244   14:40   86.3    14    5.0    51     11.2  99999.0    0.00     699    69.3
 244   14:50   86.1    14    6.6     1     13.1  99999.0    0.00     674    69.4
 244   15:00   86.8    14    4.1    12     10.3  99999.0    0.00     650    69.6
 244   15:10   86.4    14    6.3     0     11.0  99999.0    0.00     624    69.8
 244   15:20   86.9    13    4.8    10      9.7  99999.0    0.00     595    69.9
 244   15:30   87.3    13    4.4     6     10.2  99999.0    0.00     567    70.0
 244   15:40   87.5    13    4.9   348      9.3  99999.0    0.00     538    70.2
 244   15:50   87.2    13    4.1   339      8.1  99999.0    0.00     506    70.3
 244   16:00   86.8    13    5.2   359     11.2  99999.0    0.00     472    70.4
 244   16:10   86.5    14    4.9   342      9.6  99999.0    0.00     440    70.5
 244   16:20   86.9    13    4.7   360      8.2  99999.0    0.00     407    70.6
 244   16:30   86.6    13    3.8     0      8.1  99999.0    0.00     375    70.7
 244   16:40   86.7    14    4.6   337      8.3  99999.0    0.00     343    70.7
 244   16:50   86.3    14    4.1    12      7.1  99999.0    0.00     308    70.8
 244   17:00   85.5    14    4.1   336      7.6  99999.0    0.00     273    70.9
 244   17:10   84.7    15    3.2   324      5.4  99999.0    0.00     208    70.9
 244   17:20   84.1    17    3.4   335      6.5  99999.0    0.00      69    71.0
 244   17:30   83.7    16    2.6   334      4.3  99999.0    0.00      40    71.0
 244   17:40   82.6    19    3.0   322      5.4  99999.0    0.00      40    71.0
 244   17:50   81.6    20    2.7   317      4.0  99999.0    0.00      31    71.0
 244   18:00   79.4    21    1.0   306      3.4  99999.0    0.00      21    71.0
 244   18:10   78.0    21    0.1   301      1.7  99999.0    0.00      16    71.0
 244   18:20   76.4    23    0.5   255      2.8  99999.0    0.00      12    71.0
 244   18:30   74.9    24    3.9   255      7.3  99999.0    0.00       7    71.0
 244   18:40   74.7    23    3.9   255      6.9  99999.0    0.00       3    70.9
 244   18:50   73.5    24    1.5   265      6.9  99999.0    0.00       1    70.9
 244   19:00   74.2    22    5.8   314      9.2  99999.0    0.00       0    70.8
 244   19:10   74.8    21    6.1   315      9.5  99999.0    0.00       0    70.8
 244   19:20   74.8    21    6.3   307     10.3  99999.0    0.00       0    70.7
 244   19:30   75.2    20    5.6   304     10.7  99999.0    0.00       0    70.7
 244   19:40   74.6    20    4.5   303      8.0  99999.0    0.00       0    70.6
 244   19:50   74.1    20    5.0   303     10.8  99999.0    0.00       0    70.5
 244   20:00   73.8    20    4.7   304      9.7  99999.0    0.00       0    70.5
 244   20:10   73.0    21    4.0   303      8.7  99999.0    0.00       0    70.4
 244   20:20   71.6    24    3.1   302      6.0  99999.0    0.00       0    70.3
 244   20:30   70.2    24    0.2   302      3.1  99999.0    0.00       0    70.2
 244   20:40   68.7    25    0.1   244      2.4  99999.0    0.00       0    70.2
 244   20:50   68.2    25    2.7   215      5.4  99999.0    0.00       0    70.1
 244   21:00   67.4    26    3.0   242      5.9  99999.0    0.00       0    70.0
 244   21:10   66.5    27    2.9   252      5.2  99999.0    0.00       0    69.9
 244   21:20   66.5    27    4.0   246      5.9  99999.0    0.00       0    69.9
 244   21:30   65.9    27    5.0   233      6.3  99999.0    0.00       0    69.8
 244   21:40   66.1    27    5.5   238      8.1  99999.0    0.00       0    69.7
 244   21:50   67.1    26    6.6   240      8.4  99999.0    0.00       0    69.6
 244   22:00   66.8    27    5.6   248      8.0  99999.0    0.00       0    69.5
 244   22:10   67.0    26    5.5   251      8.8  99999.0    0.00       0    69.4
 244   22:20   67.3    25    6.7   249      9.5  99999.0    0.00       0    69.4
 244   22:30   67.3    25    6.4   249      8.6  99999.0    0.00       0    69.3
 244   22:40   67.7    24    6.7   249     11.2  99999.0    0.00       0    69.2
 244   22:50   67.7    24    6.3   251      9.3  99999.0    0.00       0    69.1
 244   23:00   67.6    24    6.5   248     10.1  99999.0    0.00       0    69.0
 244   23:10   67.4    24    6.3   249      9.1  99999.0    0.00       0    68.9
 244   23:20   67.2    24    6.6   250     10.3  99999.0    0.00       0    68.8
 244   23:30   67.4    24    7.6   250     11.4  99999.0    0.00       0    68.8
 244   23:40   67.4    24    7.8   248     11.2  99999.0    0.00       0    68.7
 244   23:50   66.9    25    6.8   249     10.3  99999.0    0.00       0    68.6
 245    0:00   66.3    25    3.0   250      8.2  99999.0    0.00       0    68.5
 245    0:10   64.7    28    0.6   264      8.1  99999.0    0.00       0    68.4
 245    0:20   63.8    28    1.3   300      4.7  99999.0    0.00       0    68.3
 245    0:30   64.8    26    3.3   308      5.3  99999.0    0.00       0    68.3
 245    0:40   65.0    26    2.4   299      5.7  99999.0    0.00       0    68.2
 245    0:50   64.2    27    0.4   296      2.8  99999.0    0.00       0    68.1
 245    1:00   63.8    27    2.3   309      4.5  99999.0    0.00       0    68.0
 245    1:10   64.2    28    2.1   265      7.8  99999.0    0.00       0    67.9
 245    1:20   63.5    29    0.9   279      6.7  99999.0    0.00       0    67.8
 245    1:30   63.5    29    2.3   251      7.5  99999.0    0.00       0    67.8
 245    1:40   63.3    31    3.9   251      7.1  99999.0    0.00       0    67.7
 245    1:50   63.5    29    1.7   261      6.8  99999.0    0.00       0    67.6
 245    2:00   63.5    28    1.9   252      5.7  99999.0    0.00       0    67.5
 245    2:10   63.3    29    2.1   258      7.9  99999.0    0.00       0    67.4
 245    2:20   62.4    31    3.4   248      8.5  99999.0    0.00       0    67.4
 245    2:30   63.3    27    3.8   224      7.3  99999.0    0.00       0    67.3
 245    2:40   63.1    28    4.4   245      6.8  99999.0    0.00       0    67.2
 245    2:50   62.6    29    2.5   254      6.2  99999.0    0.00       0    67.1
 245    3:00   62.5    29    1.8   287      4.3  99999.0    0.00       0    67.0
 245    3:10   62.1    29    2.5   341      4.1  99999.0    0.00       0    66.9
 245    3:20   62.4    29    1.0     7      3.1  99999.0    0.00       0    66.9
 245    3:30   63.0    28    1.7   244      4.3  99999.0    0.00       0    66.8
 245    3:40   64.6    26    3.9   223      6.3  99999.0    0.00       0    66.7
 245    3:50   65.2    26    2.9   236      8.8  99999.0    0.00       0    66.7
 245    4:00   64.0    26    0.8   219      3.8  99999.0    0.00       0    66.6
 245    4:10   63.1    28    1.8   266      6.1  99999.0    0.00       0    66.5
 245    4:20   61.4    31    1.5   304      4.7  99999.0    0.00       0    66.5
 245    4:30   62.5    29    3.0   242      5.6  99999.0    0.00       0    66.4
 245    4:40   62.9    29    0.8   214      4.1  99999.0    0.00       0    66.3
 245    4:50   59.3    33    2.7   140      3.9  99999.0    0.00       0    66.3
 245    5:00   57.0    37    2.2   214      4.9  99999.0    0.00       0    66.2
 245    5:10   55.8    38    3.1   231      5.8  99999.0    0.00       0    66.1
 245    5:20   56.0    38    0.8   276      3.4  99999.0    0.00       1    66.1
 245    5:30   57.2    36    1.2   302      4.0  99999.0    0.00       3    66.0
 245    5:40   58.4    34    0.7    24      2.8  99999.0    0.00       7    65.9
 245    5:50   59.9    32    1.2    82      4.2  99999.0    0.00      17    65.9
 245    6:00   58.9    34    2.3   104      4.7  99999.0    0.00      41    65.8
 245    6:10   59.0    35    0.5   203      2.4  99999.0    0.00      73    65.8
 245    6:20   61.3    32    0.2   194      1.6  99999.0    0.00     110    65.7
 245    6:30   64.1    30    0.4    62      3.0  99999.0    0.00     146    65.6
 245    6:40   64.3    31    1.7    28      4.3  99999.0    0.00     177    65.6
 245    6:50   63.8    31    1.2    10      3.5  99999.0    0.00     207    65.5
 245    7:00   65.6    30    0.7     6      2.7  99999.0    0.00     239    65.5
 245    7:10   67.7    29    0.0   342      1.3  99999.0    0.00     271    65.4
 245    7:20   69.0    28    0.8    20      3.1  99999.0    0.00     305    65.4
 245    7:30   68.0    29    2.3    74      4.0  99999.0    0.00     338    65.3
 245    7:40   68.2    28    1.4    79      3.1  99999.0    0.00     371    65.3
 245    7:50   69.1    27    2.2    75      3.9  99999.0    0.00     403    65.3
 245    8:00   69.2    28    2.2     2      4.0  99999.0    0.00     434    65.2
 245    8:10   70.5    27    1.4    28      3.1  99999.0    0.00     466    65.2
 245    8:20   72.8    25    0.6   358      3.5  99999.0    0.00     497    65.2
 245    8:30   71.7    28    3.0   350      4.9  99999.0    0.00     526    65.2
 245    8:40   72.6    26    1.9   349      4.2  99999.0    0.00     556    65.2
 245    8:50   74.3    23    2.0    18      5.4  99999.0    0.00     585    65.2
 245    9:00   74.7    22    3.0    23      5.9  99999.0    0.00     614    65.3
 245    9:10   74.7    23    3.6    28      7.0  99999.0    0.00     642    65.3
 245    9:20   75.0    22    4.1    29      7.0  99999.0    0.00     669    65.3
 245    9:30   76.1    22    3.0    22      7.5  99999.0    0.00     693    65.4
 245    9:40   77.5    21    2.7    24      5.6  99999.0    0.00     717    65.5
 245    9:50   78.0    19    3.0    43      6.1  99999.0    0.00     740    65.5
 245   10:00   78.6    20    2.9    28      6.2  99999.0    0.00     761    65.6
 245   10:10   78.5    19    2.5    34      5.6  99999.0    0.00     763    65.7
 245   10:20   80.6    19    2.6   352      6.3  99999.0    0.00     733    65.8
 245   10:30   80.3    19    2.7   355      6.3  99999.0    0.00     720    65.9
 245   10:40   80.9    18    3.7   340      8.2  99999.0    0.00     828    66.0
 245   10:50   81.3    20    2.1   323      7.1  99999.0    0.00     818    66.2
 245   11:00   81.8    17    4.4     8      8.3  99999.0    0.00     848    66.3
 245   11:10   82.7    17    4.1    29      8.1  99999.0    0.00     863    66.5
 245   11:20   82.8    17    5.5    20      9.5  99999.0    0.00     870    66.6
 245   11:30   82.9    16    5.2    30      8.7  99999.0    0.00     878    66.8
 245   11:40   84.0    16    4.9   356      9.0  99999.0    0.00     883    67.0
 245   11:50   84.7    15    4.8    31      9.3  99999.0    0.00     887    67.1
 245   12:00   86.0    15    4.3    21     10.2  99999.0    0.00     887    67.3
 245   12:10   86.1    15    4.9    16      9.3  99999.0    0.00     883    67.5
 245   12:20   86.8    14    6.5    34     12.0  99999.0    0.00     889    67.7
 245   12:30   87.2    14    4.4    40      9.4  99999.0    0.00     884    67.9
 245   12:40   88.0    14    6.9     5     11.3  99999.0    0.00     878    68.0
 245   12:50   88.5    14    6.6   329     12.2  99999.0    0.00     874    68.2
 245   13:00   88.7    13    6.9    10     11.6  99999.0    0.00     868    68.4
 245   13:10   89.3    12    3.5    18      7.6  99999.0    0.00     862    68.6
 245   13:20   88.6    12    4.7   335     12.5  99999.0    0.00     845    68.8
 245   13:30   89.1    12    7.3   358     16.8  99999.0    0.00     834    69.0

Return to South Reno, Nevada graphs page.


Western Regional Climate Center,wrcc@dri.edu